Etusivu
METAR-TAF:

METAR-TAF

Lentoasemat :

Gulf Shores, Alabama, Yhdysvallat

Leveyspiiri: 30-17-23N, Pituuspiiri: 087-40-18W, korkeus merenpinnasta: 5 m

Tämänhetkinen sää

Tämä raportti tehtiin 20 minuuttia sitten, kello 15.15 UTC
Tuuli 3 kn idästä/kaakosta
Lämpötila 20°C
Kosteus 100%
Ilmanpaine 1020 hPa
Näkyvyys: 16.1 km
Pilvistä 300 ft:n korkeudessa

METAR: KJKA 261515Z AUTO 12003KT 10SM OVC003 20/20 A3013 RMK AO2 T01970197

Aika: 09:35 (15:35 UTC)


TAF: puuttuu

Säähavainnot ja -ennusteet yli 4000 lentoasemalta (METAR- ja TAF-raportit).

Käytössä olevat sääasemat on merkitty karttaan keltaisilla ja punaisilla pisteillä.

Aseta hiiri pisteen päälle nähdäksesi sääaseman nimen.

Klikkaa sitten nähdäksesi säähavainnot ja -ennusteet.

Kartan vaihtaminen: klikkaa mustalla rastilla varustettuja vihreitä pisteitä, niin voit zoomata sisään; viivalla varustettua vihreää pistettä, niin voit zoomata ulos tai vihreitä nuolia, niin pääset viereisille kartoille.


METAR-TAF: